Birchwood Airport Birchwood US
ICAO: PABV
IATA:
Category: Medium
Scheduled Services:

Elevation: 83 ft
TransAlt. 18000 ft.

Airport Communications:
AWOS 3:135.55
ANCHORAGE CNTR:132.3
CTAF/UNICOM:123

PABV Zoom In..

If you have problems with the map follow the link
https://www.worldairports.se/pages/airport.php?
ICAO=PABV

Runways:

(A) RW 02L length 4010 ft width 100 ft
---- / hdg 14

(B) RW 02R length 2200 ft width 50 ft
---- / hdg 14

(C) RW 20L length 2200 ft width 50 ft
---- / hdg 194

(D) RW 20R length 4010 ft width 100 ft
---- / hdg 194

Location; PABV
Day. 29 / Time. 11.56 Zulu
* Altimeter: 28.63
* Temperature: -12° c. -10.4°f.
* Wind from: 150° Speed 03 kn.
Dewpoint: -15° c.
Visibility: 10 Statute Miles.
Clouds: Broken 12000 ft.

PABV 291156Z AUTO 15003KT 10SM BKN120 M12/M15 A2863 RMK AO2 SLP703 T11221150 11117 21156 56056 FZRANO


Wind From 150°
Speed 03 kn.

 
 
jpsmedia worldairports.se 2020   terms of use